Time;durP1;ratioP1;P1;durP2;ratioP2;P2;SDS_P1;SDS_P2;PMS_P1;PMS_P2;Temp;Humidity;BMP_temperature;BMP_pressure;BME280_temperature;BME280_humidity;BME280_pressure;Samples;Min_cycle;Max_cycle;Signal;HPM_P1;HPM_P2
2022/05/31 00:01:59;;;;;;;5.23;3.93;;;;;;;7.80;89.47;101621.84;5032243;28;20770;-73
2022/05/31 00:04:25;;;;;;;4.60;3.97;;;;;;;7.81;89.72;101623.56;5014887;28;20195;-73
2022/05/31 00:06:51;;;;;;;4.43;3.80;;;;;;;7.82;90.09;101626.97;5032143;28;20198;-73
2022/05/31 00:09:16;;;;;;;5.67;3.60;;;;;;;7.74;90.45;101628.34;5032508;28;20178;-72
2022/05/31 00:11:42;;;;;;;5.33;3.60;;;;;;;7.75;89.58;101628.41;5031721;28;20676;-72
2022/05/31 00:14:10;;;;;;;4.20;3.80;;;;;;;7.76;90.71;101624.16;5032530;28;20194;-73
2022/05/31 00:16:35;;;;;;;4.53;3.77;;;;;;;7.71;90.83;101620.56;5032264;28;20309;-72
2022/05/31 00:19:01;;;;;;;4.37;3.90;;;;;;;7.67;90.54;101619.56;5032097;28;20696;-72
2022/05/31 00:21:40;;;;;;;4.50;3.57;;;;;;;7.67;90.25;101617.00;5014388;28;20716;-73
2022/05/31 00:24:15;;;;;;;4.37;3.97;;;;;;;7.63;90.44;101620.22;5031599;28;20281;-72
2022/05/31 00:26:41;;;;;;;4.10;3.60;;;;;;;7.64;90.96;101621.13;5032533;28;20248;-72
2022/05/31 00:29:08;;;;;;;4.30;3.73;;;;;;;7.57;90.74;101619.97;5031636;28;20202;-72
2022/05/31 00:31:36;;;;;;;4.60;3.60;;;;;;;7.56;90.75;101622.44;5014490;28;20562;-72
2022/05/31 00:34:02;;;;;;;7.63;4.30;;;;;;;7.53;91.19;101622.31;5031058;28;20183;-72
2022/05/31 00:36:28;;;;;;;4.90;3.83;;;;;;;7.48;91.12;101613.59;5014535;28;20582;-72
2022/05/31 00:38:55;;;;;;;4.07;3.70;;;;;;;7.39;91.74;101613.19;5013627;28;20272;-73
2022/05/31 00:41:24;;;;;;;3.57;3.20;;;;;;;7.42;90.89;101613.34;5014279;28;20287;-73
2022/05/31 00:43:59;;;;;;;7.07;3.77;;;;;;;7.45;91.26;101609.22;5014646;28;20185;-73
2022/05/31 00:46:30;;;;;;;5.63;4.10;;;;;;;7.39;91.43;101613.19;5013935;28;20285;-73
2022/05/31 00:49:01;;;;;;;4.10;3.43;;;;;;;7.37;92.02;101614.81;5013706;28;20228;-72
2022/05/31 00:51:38;;;;;;;6.03;3.87;;;;;;;7.33;92.08;101621.41;5013591;28;20236;-73
2022/05/31 00:54:07;;;;;;;5.37;3.50;;;;;;;7.24;91.84;101623.56;5014162;28;20189;-73
2022/05/31 00:56:33;;;;;;;4.90;3.10;;;;;;;7.22;90.84;101617.53;5013443;28;20205;-73
2022/05/31 00:59:01;;;;;;;4.50;3.27;;;;;;;7.13;90.51;101618.78;5013529;28;20216;-73
2022/05/31 01:01:29;;;;;;;3.70;3.33;;;;;;;7.15;90.28;101620.63;5013313;28;20324;-73
2022/05/31 01:03:55;;;;;;;4.30;3.90;;;;;;;7.13;90.81;101621.31;5013593;28;20232;-73
2022/05/31 01:06:21;;;;;;;8.70;4.23;;;;;;;7.10;91.05;101614.41;5028268;28;20266;-73
2022/05/31 01:08:47;;;;;;;4.37;3.60;;;;;;;6.99;91.21;101610.53;4996296;28;20202;-72
2022/05/31 01:11:39;;;;;;;4.43;3.30;;;;;;;6.97;90.86;101618.91;5030290;28;20675;-73
2022/05/31 01:14:26;;;;;;;4.17;3.60;;;;;;;6.96;90.92;101615.47;5030683;28;20726;-72
2022/05/31 01:17:27;;;;;;;3.63;3.33;;;;;;;6.89;90.55;101613.47;5031089;28;20226;-73
2022/05/31 01:20:16;;;;;;;5.63;3.60;;;;;;;6.88;91.33;101616.81;5030960;28;20686;-72
2022/05/31 01:22:56;;;;;;;4.40;3.90;;;;;;;6.90;91.24;101614.31;4998879;28;20276;-73
2022/05/31 01:25:23;;;;;;;4.97;3.80;;;;;;;6.83;90.86;101613.19;5012796;28;20855;-72
2022/05/31 01:28:10;;;;;;;4.63;3.50;;;;;;;6.79;91.16;101618.94;4996924;28;20211;-72
2022/05/31 01:30:42;;;;;;;9.93;3.83;;;;;;;6.82;90.54;101613.97;5030724;28;20186;-73
2022/05/31 01:33:13;;;;;;;5.97;4.07;;;;;;;6.80;90.91;101609.59;5013054;28;20245;-73
2022/05/31 01:35:38;;;;;;;4.73;4.20;;;;;;;6.74;90.71;101622.94;5012776;28;20281;-73
2022/05/31 01:38:13;;;;;;;4.07;3.23;;;;;;;6.77;90.47;101615.41;5012918;28;20329;-72
2022/05/31 01:40:54;;;;;;;7.40;4.07;;;;;;;6.74;90.84;101622.94;5029932;28;20200;-73
2022/05/31 01:43:20;;;;;;;5.87;3.73;;;;;;;6.64;91.08;101628.38;5031081;28;20189;-72
2022/05/31 01:46:09;;;;;;;4.17;3.77;;;;;;;6.63;90.86;101628.31;5030586;28;20190;-73
2022/05/31 01:48:39;;;;;;;4.50;4.10;;;;;;;6.61;91.45;101623.16;5012628;28;20225;-73
2022/05/31 01:51:05;;;;;;;4.87;3.67;;;;;;;6.59;91.23;101627.28;5013070;28;20902;-73
2022/05/31 01:53:32;;;;;;;4.10;3.70;;;;;;;6.49;91.10;101621.69;4996161;28;20308;-72
2022/05/31 01:55:58;;;;;;;5.37;3.93;;;;;;;6.48;91.25;101618.28;5012750;28;20270;-73
2022/05/31 01:58:28;;;;;;;4.10;3.70;;;;;;;6.50;91.51;101616.66;4993849;28;20195;-73
2022/05/31 02:00:54;;;;;;;4.60;3.80;;;;;;;6.53;91.46;101614.28;5012686;28;20178;-72
2022/05/31 02:03:21;;;;;;;4.83;3.53;;;;;;;6.49;91.59;101614.06;5030099;28;20209;-73
2022/05/31 02:05:50;;;;;;;5.17;4.13;;;;;;;6.45;91.67;101617.25;5012380;28;20189;-73
2022/05/31 02:08:19;;;;;;;3.97;3.57;;;;;;;6.42;91.78;101615.44;5011946;28;20202;-73
2022/05/31 02:10:46;;;;;;;3.80;3.50;;;;;;;6.37;91.63;101614.34;5011818;28;20189;-72
2022/05/31 02:13:12;;;;;;;5.80;3.80;;;;;;;6.32;91.83;101618.34;5012864;28;20663;-73
2022/05/31 02:15:37;;;;;;;4.57;4.17;;;;;;;6.28;92.12;101602.84;5029152;28;20240;-72
2022/05/31 02:21:39;;;;;;;4.70;3.70;;;;;;;6.26;91.92;101607.00;5011843;28;20659;-73
2022/05/31 02:24:10;;;;;;;3.63;3.33;;;;;;;6.29;91.74;101610.56;5012453;28;20193;-72
2022/05/31 02:26:36;;;;;;;5.03;3.57;;;;;;;6.29;91.77;101609.69;5029630;28;20190;-72
2022/05/31 02:29:02;;;;;;;4.43;3.43;;;;;;;6.16;92.08;101612.41;5012035;28;20659;-73
2022/05/31 02:31:29;;;;;;;3.53;3.20;;;;;;;6.19;91.53;101615.13;5012050;28;20224;-73
2022/05/31 02:33:54;;;;;;;4.40;3.30;;;;;;;6.17;91.67;101609.09;5029812;28;20167;-72
2022/05/31 02:36:20;;;;;;;3.87;3.53;;;;;;;6.14;92.06;101614.03;5029325;28;20872;-73
2022/05/31 02:38:45;;;;;;;4.47;3.50;;;;;;;6.09;91.91;101607.84;5011488;28;20719;-73
2022/05/31 02:41:11;;;;;;;4.93;3.40;;;;;;;6.06;91.96;101611.09;5011598;28;20741;-73
2022/05/31 02:43:37;;;;;;;3.87;3.30;;;;;;;6.00;91.56;101608.28;5011532;28;20182;-73
2022/05/31 02:46:03;;;;;;;4.50;3.23;;;;;;;6.03;91.87;101620.25;5012118;28;20189;-73
2022/05/31 02:48:29;;;;;;;4.63;3.47;;;;;;;5.99;91.67;101623.44;5011167;28;20691;-73
2022/05/31 02:50:54;;;;;;;4.83;3.60;;;;;;;5.98;91.18;101614.06;4995260;28;20291;-73
2022/05/31 02:53:20;;;;;;;4.30;3.10;;;;;;;5.95;92.03;101614.75;5011252;28;20952;-72
2022/05/31 02:55:45;;;;;;;3.30;3.00;;;;;;;5.95;91.38;101617.31;4995366;28;20197;-72
2022/05/31 02:58:31;;;;;;;3.47;3.17;;;;;;;5.94;91.39;101627.44;5028738;28;21018;-72
2022/05/31 03:01:25;;;;;;;4.17;3.37;;;;;;;5.84;92.03;101615.91;5029314;28;20279;-72
2022/05/31 03:04:17;;;;;;;3.50;3.00;;;;;;;5.88;92.16;101614.38;4998120;28;20289;-73
2022/05/31 03:07:03;;;;;;;4.20;3.27;;;;;;;5.86;92.19;101616.00;5029240;28;20590;-73
2022/05/31 03:09:33;;;;;;;3.97;3.13;;;;;;;5.80;91.85;101621.63;5010896;28;20221;-72
2022/05/31 03:12:05;;;;;;;4.30;3.90;;;;;;;5.79;91.49;101624.94;4992152;28;20245;-72
2022/05/31 03:14:53;;;;;;;3.93;3.33;;;;;;;5.82;91.37;101624.25;5001587;28;20240;-73
2022/05/31 03:17:25;;;;;;;4.77;4.27;;;;;;;5.79;91.63;101624.06;5011052;28;20221;-72
2022/05/31 03:20:00;;;;;;;4.20;3.70;;;;;;;5.75;91.35;101625.56;5011531;28;20221;-73
2022/05/31 03:22:33;;;;;;;3.93;3.17;;;;;;;5.77;91.53;101618.03;5028921;28;20189;-73
2022/05/31 03:25:09;;;;;;;5.10;3.50;;;;;;;5.73;91.45;101624.63;5011339;28;20961;-73
2022/05/31 03:27:35;;;;;;;4.57;3.50;;;;;;;5.76;91.62;101618.84;5011020;28;20206;-73
2022/05/31 03:30:02;;;;;;;4.13;3.23;;;;;;;5.76;91.58;101623.91;5033387;28;20231;-73
2022/05/31 03:32:29;;;;;;;3.80;3.40;;;;;;;5.76;91.50;101627.31;5010330;28;20564;-73
2022/05/31 03:34:54;;;;;;;5.77;4.50;;;;;;;5.77;92.23;101616.38;5025724;28;20245;-72
2022/05/31 03:37:20;;;;;;;6.33;4.53;;;;;;;5.78;92.62;101620.66;5014943;28;20707;-73
2022/05/31 03:39:46;;;;;;;4.83;4.17;;;;;;;5.70;92.51;101618.50;5015446;28;20197;-73
2022/05/31 03:42:12;;;;;;;6.43;4.40;;;;;;;5.69;92.45;101622.72;5033316;28;20547;-72
2022/05/31 03:44:37;;;;;;;4.53;4.10;;;;;;;5.69;92.33;101621.84;5015116;28;20556;-73
2022/05/31 03:47:20;;;;;;;8.33;4.27;;;;;;;5.72;92.10;101622.00;4987177;28;20202;-73
2022/05/31 03:50:02;;;;;;;4.97;4.37;;;;;;;5.71;91.99;101626.22;4995158;28;20565;-73
2022/05/31 03:52:27;;;;;;;4.70;3.93;;;;;;;5.72;91.82;101624.56;4995638;28;20184;-73
2022/05/31 03:54:53;;;;;;;4.50;4.10;;;;;;;5.72;92.03;101629.63;4994991;28;20260;-72
2022/05/31 03:57:48;;;;;;;4.83;4.30;;;;;;;5.76;91.47;101629.84;4999771;28;20234;-73
2022/05/31 04:00:35;;;;;;;6.73;4.37;;;;;;;5.79;91.56;101627.47;5012255;28;20201;-73
2022/05/31 04:03:30;;;;;;;7.03;4.33;;;;;;;5.85;92.13;101629.50;5001110;28;20195;-73
2022/05/31 04:05:56;;;;;;;5.70;4.63;;;;;;;5.86;92.44;101637.22;4994889;28;20187;-73
2022/05/31 04:08:24;;;;;;;4.83;4.27;;;;;;;5.84;92.38;101626.06;4995140;28;20250;-73
2022/05/31 04:10:50;;;;;;;6.30;4.70;;;;;;;5.89;92.56;101631.41;4995184;28;20743;-73
2022/05/31 04:13:17;;;;;;;7.80;5.40;;;;;;;5.95;93.68;101629.16;4995277;28;20191;-73
2022/05/31 04:16:14;;;;;;;8.00;6.07;;;;;;;6.05;93.84;101637.34;4998251;28;20206;-73
2022/05/31 04:18:43;;;;;;;9.33;6.63;;;;;;;6.10;93.95;101630.81;4978937;28;20302;-73
2022/05/31 04:21:12;;;;;;;7.20;5.80;;;;;;;6.16;94.33;101641.25;4995273;28;20277;-73
2022/05/31 04:26:45;;;;;;;8.03;7.10;;;;;;;6.42;94.52;101632.38;5033092;28;20185;-73
2022/05/31 04:29:30;;;;;;;7.63;6.10;;;;;;;6.51;95.55;101626.06;5032386;28;20196;-72
2022/05/31 04:32:04;;;;;;;6.47;5.67;;;;;;;6.64;95.64;101627.50;5032284;28;20210;-73
2022/05/31 04:34:41;;;;;;;7.23;6.53;;;;;;;6.73;95.91;101630.50;5014363;28;20190;-73
2022/05/31 04:37:07;;;;;;;7.47;6.20;;;;;;;6.82;96.38;101633.47;5014539;28;20354;-73
2022/05/31 04:39:52;;;;;;;7.23;6.47;;;;;;;6.95;96.67;101630.69;5023948;28;20284;-73
2022/05/31 04:42:34;;;;;;;7.10;6.40;;;;;;;7.03;96.76;101627.69;5000610;28;20186;-73
2022/05/31 04:45:00;;;;;;;7.93;6.40;;;;;;;7.14;96.09;101630.72;5013787;28;20186;-72
2022/05/31 04:47:26;;;;;;;7.43;6.20;;;;;;;7.24;95.88;101633.75;5014072;28;20675;-72
2022/05/31 04:49:54;;;;;;;7.13;6.43;;;;;;;7.35;97.01;101629.13;5014011;28;20353;-73
2022/05/31 04:52:19;;;;;;;7.03;6.33;;;;;;;7.45;96.88;101621.97;5014038;28;20289;-73
2022/05/31 04:54:49;;;;;;;8.17;7.20;;;;;;;7.55;95.92;101626.66;5014075;28;20214;-73
2022/05/31 04:57:33;;;;;;;7.43;6.57;;;;;;;7.69;95.94;101629.84;5013312;28;20268;-73
2022/05/31 04:59:58;;;;;;;8.33;6.30;;;;;;;7.84;95.40;101627.94;5014071;28;20187;-73
2022/05/31 05:02:23;;;;;;;7.60;6.17;;;;;;;7.96;95.34;101633.53;5013525;28;20324;-73
2022/05/31 05:04:53;;;;;;;7.23;6.53;;;;;;;8.09;96.63;101636.69;5013917;28;20896;-73
2022/05/31 05:07:37;;;;;;;6.77;6.13;;;;;;;8.27;95.66;101640.03;5013468;28;20234;-72
2022/05/31 05:10:07;;;;;;;7.97;6.50;;;;;;;8.40;96.15;101637.19;5014151;28;20217;-73
2022/05/31 05:12:55;;;;;;;8.30;6.20;;;;;;;8.49;94.91;101634.09;5013749;28;20634;-73
2022/05/31 05:15:41;;;;;;;7.43;6.00;;;;;;;8.70;94.79;101629.88;5017384;28;20194;-73
2022/05/31 05:18:08;;;;;;;6.80;6.10;;;;;;;8.88;95.08;101623.78;5012848;28;20221;-73
2022/05/31 05:20:37;;;;;;;6.80;6.00;;;;;;;8.96;94.40;101619.84;5013658;28;20672;-73
2022/05/31 05:23:04;;;;;;;7.40;5.63;;;;;;;9.06;93.61;101621.03;5013492;28;20187;-73
2022/05/31 05:25:30;;;;;;;6.67;5.77;;;;;;;9.24;93.21;101625.16;5013188;28;20183;-73
2022/05/31 05:27:58;;;;;;;6.73;5.60;;;;;;;9.42;93.07;101623.28;5013331;28;20206;-73
2022/05/31 05:30:39;;;;;;;6.20;4.90;;;;;;;9.58;92.02;101625.56;5012993;28;20178;-73
2022/05/31 05:33:18;;;;;;;5.53;5.03;;;;;;;9.74;91.95;101617.63;5029558;28;20276;-73
2022/05/31 05:36:02;;;;;;;5.83;5.17;;;;;;;9.91;92.09;101624.19;5030793;28;20278;-74
2022/05/31 05:38:27;;;;;;;7.13;4.97;;;;;;;10.06;91.12;101623.88;5013021;28;20257;-74
2022/05/31 05:41:14;;;;;;;5.00;4.57;;;;;;;10.21;90.77;101611.59;5030217;28;20248;-73
2022/05/31 05:44:18;;;;;;;5.67;5.07;;;;;;;10.41;89.29;101616.53;5031408;28;20198;-74
2022/05/31 05:46:43;;;;;;;4.93;4.53;;;;;;;10.54;88.79;101616.13;5007080;28;20218;-74
2022/05/31 05:49:08;;;;;;;5.30;4.80;;;;;;;10.63;88.50;101611.28;4991993;28;20179;-74
2022/05/31 05:51:34;;;;;;;5.40;4.60;;;;;;;10.72;87.65;101615.81;4985061;28;20179;-73
2022/05/31 05:54:18;;;;;;;5.70;5.07;;;;;;;10.67;87.72;101619.94;5030669;28;20194;-73
2022/05/31 05:57:02;;;;;;;7.07;5.10;;;;;;;10.85;87.73;101620.50;5028401;28;20252;-74
2022/05/31 05:59:46;;;;;;;5.43;4.83;;;;;;;10.96;87.49;101624.28;5015341;28;20301;-74
2022/05/31 06:02:57;;;;;;;5.13;4.63;;;;;;;11.13;86.49;101629.06;4967586;28;20692;-73
2022/05/31 06:05:40;;;;;;;5.00;4.03;;;;;;;11.35;85.30;101617.75;5004484;28;20194;-74
2022/05/31 06:08:09;;;;;;;4.33;3.93;;;;;;;11.64;84.96;101617.75;5001857;28;20207;-74
2022/05/31 06:10:55;;;;;;;4.33;3.90;;;;;;;11.84;84.27;101618.31;5000520;28;20198;-73
2022/05/31 06:13:26;;;;;;;5.37;3.97;;;;;;;11.93;82.69;101621.97;5005625;28;20191;-73
2022/05/31 06:15:55;;;;;;;9.53;4.20;;;;;;;12.19;82.61;101620.94;5008628;28;20183;-73
2022/05/31 06:18:30;;;;;;;5.07;4.00;;;;;;;12.36;82.06;101618.78;5013992;28;20646;-73
2022/05/31 06:21:00;;;;;;;4.40;3.93;;;;;;;12.46;79.89;101615.63;5028347;28;20235;-73
2022/05/31 06:23:26;;;;;;;3.70;3.40;;;;;;;12.63;79.64;101622.03;5028784;28;20182;-73
2022/05/31 06:25:53;;;;;;;3.67;3.37;;;;;;;12.81;79.36;101613.03;5028172;28;20186;-74
2022/05/31 06:28:31;;;;;;;3.80;3.50;;;;;;;12.99;78.63;101617.75;4994646;28;20246;-73
2022/05/31 06:30:57;;;;;;;3.63;3.33;;;;;;;13.12;78.88;101616.31;4998557;28;20207;-73
2022/05/31 06:33:22;;;;;;;3.60;3.30;;;;;;;13.27;77.42;101617.53;5008148;28;20235;-73
2022/05/31 06:35:50;;;;;;;2.67;2.47;;;;;;;13.22;74.91;101620.81;5008847;28;20190;-71
2022/05/31 06:38:17;;;;;;;3.50;2.80;;;;;;;13.36;74.52;101620.28;5008421;28;20771;-72
2022/05/31 06:40:44;;;;;;;3.43;3.00;;;;;;;13.36;74.04;101615.13;5002214;28;20243;-73
2022/05/31 06:43:15;;;;;;;4.63;2.33;;;;;;;13.66;72.35;101620.00;5009088;28;20611;-73
2022/05/31 06:46:03;;;;;;;3.30;2.47;;;;;;;14.02;72.22;101608.69;5017538;28;20249;-73
2022/05/31 06:48:28;;;;;;;3.73;2.30;;;;;;;13.73;69.02;101619.28;5027978;28;20214;-72
2022/05/31 06:57:53;;;;;;;2.17;1.20;;;;;;;14.31;66.32;101612.66;5014230;28;20228;-72
2022/05/31 07:00:26;;;;;;;2.70;1.60;;;;;;;14.17;66.68;101618.38;5017442;28;20183;-72
2022/05/31 07:02:54;;;;;;;3.83;1.80;;;;;;;14.44;65.83;101614.59;4990457;28;20194;-72
2022/05/31 07:05:20;;;;;;;3.03;2.00;;;;;;;14.56;66.91;101613.91;5007783;28;20191;-72
2022/05/31 07:07:46;;;;;;;3.70;2.40;;;;;;;14.84;67.23;101616.06;5007921;28;20214;-72
2022/05/31 07:10:30;;;;;;;3.23;2.23;;;;;;;14.95;66.15;101605.06;5010940;28;20224;-72
2022/05/31 07:13:24;;;;;;;2.83;2.27;;;;;;;15.15;64.41;101610.50;5027895;28;20225;-72
2022/05/31 07:16:08;;;;;;;2.53;1.90;;;;;;;15.11;64.00;101613.88;5027522;28;20174;-72
2022/05/31 07:18:55;;;;;;;3.73;1.73;;;;;;;14.86;62.26;101611.78;5027012;28;20276;-72
2022/05/31 07:21:24;;;;;;;2.33;1.80;;;;;;;14.98;61.89;101607.69;5027055;28;20565;-72
2022/05/31 07:23:49;;;;;;;2.83;2.10;;;;;;;15.41;62.59;101606.53;5026219;28;20682;-71
2022/05/31 07:26:15;;;;;;;2.10;1.83;;;;;;;15.78;61.47;101603.53;5023613;28;20202;-73
2022/05/31 07:28:41;;;;;;;2.30;1.50;;;;;;;15.93;61.38;101607.13;5013157;28;20711;-72
2022/05/31 07:31:07;;;;;;;2.23;1.40;;;;;;;16.10;60.29;101603.00;5006444;28;20182;-72
2022/05/31 07:33:42;;;;;;;3.00;1.60;;;;;;;16.23;60.96;101597.09;4992691;28;20187;-72
2022/05/31 07:36:09;;;;;;;2.17;1.37;;;;;;;16.29;59.87;101602.31;5006380;28;20245;-73
2022/05/31 07:38:49;;;;;;;1.73;1.60;;;;;;;16.57;59.29;101593.94;5006206;28;20241;-72
2022/05/31 07:41:15;;;;;;;2.10;1.57;;;;;;;16.65;57.96;101594.84;4993354;28;20262;-73
2022/05/31 07:43:40;;;;;;;3.53;1.50;;;;;;;16.82;58.60;101590.66;5007353;28;20825;-72
2022/05/31 07:46:10;;;;;;;2.23;1.30;;;;;;;17.22;56.97;101591.75;5011024;28;20194;-73
2022/05/31 07:48:37;;;;;;;1.60;1.50;;;;;;;17.17;54.48;101593.44;5026553;28;20684;-73
2022/05/31 07:51:22;;;;;;;1.80;1.60;;;;;;;17.15;56.13;101588.25;5021204;28;20183;-72
2022/05/31 07:54:16;;;;;;;3.40;2.03;;;;;;;16.63;56.18;101588.78;5007686;28;20230;-73
2022/05/31 07:57:04;;;;;;;2.83;2.03;;;;;;;16.75;54.49;101583.72;5008636;28;20374;-72
2022/05/31 07:59:48;;;;;;;2.10;1.90;;;;;;;17.49;53.93;101576.31;5013111;28;20193;-72
2022/05/31 08:02:43;;;;;;;2.67;2.47;;;;;;;17.51;53.72;101575.50;5027550;28;20574;-72
2022/05/31 08:05:09;;;;;;;2.30;2.10;;;;;;;17.95;52.92;101571.25;5027908;28;20228;-72
2022/05/31 08:07:34;;;;;;;2.40;1.90;;;;;;;18.29;51.84;101565.19;5027888;28;20898;-72
2022/05/31 08:09:59;;;;;;;2.93;1.80;;;;;;;18.44;51.71;101578.22;5027330;28;20199;-73
2022/05/31 08:12:25;;;;;;;1.97;1.80;;;;;;;18.69;52.44;101574.69;5010061;28;20190;-73
2022/05/31 08:14:50;;;;;;;3.90;1.87;;;;;;;18.74;51.08;101569.53;5029127;28;20364;-73
2022/05/31 08:17:16;;;;;;;2.63;2.17;;;;;;;18.69;52.10;101573.81;5029339;28;20334;-73
2022/05/31 08:19:41;;;;;;;3.20;1.90;;;;;;;18.65;50.59;101569.53;5031188;28;20236;-73
2022/05/31 08:22:06;;;;;;;2.13;1.93;;;;;;;18.34;53.06;101576.47;5030487;28;20182;-73
2022/05/31 08:24:31;;;;;;;2.63;1.63;;;;;;;18.20;53.54;101564.34;5030797;28;20190;-73
2022/05/31 08:26:59;;;;;;;2.57;1.80;;;;;;;18.08;53.00;101569.53;5028339;28;20195;-73
2022/05/31 08:29:24;;;;;;;3.17;2.30;;;;;;;17.67;52.58;101572.06;5008681;28;20182;-72
2022/05/31 08:31:50;;;;;;;3.77;2.10;;;;;;;18.13;53.86;101571.25;5010885;28;20190;-73
2022/05/31 08:34:15;;;;;;;2.23;2.00;;;;;;;18.57;52.51;101563.50;5011979;28;20230;-73
2022/05/31 08:36:40;;;;;;;2.57;2.10;;;;;;;18.62;51.10;101559.16;5010079;28;20239;-73
2022/05/31 08:39:06;;;;;;;4.53;2.43;;;;;;;18.56;51.60;101562.63;5009106;28;20197;-73
2022/05/31 08:41:36;;;;;;;3.63;2.20;;;;;;;18.37;51.04;101560.06;5010278;28;20203;-73
2022/05/31 08:44:23;;;;;;;2.97;2.20;;;;;;;18.24;52.32;101559.16;5011606;28;20195;-73
2022/05/31 08:47:07;;;;;;;3.13;2.30;;;;;;;18.47;51.92;101554.00;5019844;28;20186;-73
2022/05/31 08:53:04;;;;;;;2.50;2.30;;;;;;;18.68;51.57;101554.81;5029988;28;20186;-73
2022/05/31 08:58:30;;;;;;;3.57;2.50;;;;;;;19.18;51.31;101541.66;4999150;28;20342;-73
2022/05/31 09:00:57;;;;;;;3.90;2.70;;;;;;;19.34;49.52;101551.16;5015372;28;20564;-72
2022/05/31 09:03:30;;;;;;;2.37;2.17;;;;;;;19.62;50.01;101545.78;5010519;28;20191;-72
2022/05/31 09:06:02;;;;;;;4.33;2.60;;;;;;;20.37;49.36;101537.44;5008236;28;20195;-73
2022/05/31 09:08:36;;;;;;;3.33;2.60;;;;;;;20.63;48.38;101538.03;5009240;28;20198;-73
2022/05/31 09:11:19;;;;;;;2.40;2.20;;;;;;;21.08;45.29;101526.25;5010276;28;20179;-74
2022/05/31 09:13:50;;;;;;;3.67;2.50;;;;;;;20.41;45.71;101526.09;5015676;28;20281;-73
2022/05/31 09:16:51;;;;;;;3.30;2.47;;;;;;;19.34;47.23;101535.56;5026819;28;20272;-73
2022/05/31 09:19:41;;;;;;;2.87;2.27;;;;;;;19.17;46.40;101537.34;5022598;28;20264;-73
2022/05/31 09:22:07;;;;;;;2.40;2.20;;;;;;;19.28;47.30;101535.59;5009999;28;20624;-72
2022/05/31 09:24:40;;;;;;;2.97;2.63;;;;;;;19.21;46.55;101536.47;5010181;28;20194;-72
2022/05/31 09:27:17;;;;;;;2.00;1.90;;;;;;;19.46;47.64;101538.09;4991852;28;20704;-73
2022/05/31 09:30:10;;;;;;;2.63;2.13;;;;;;;19.15;46.69;101529.56;5007713;28;20191;-73
2022/05/31 09:32:50;;;;;;;2.63;2.30;;;;;;;18.23;47.73;101541.88;5010439;28;20202;-72
2022/05/31 09:35:44;;;;;;;3.67;2.63;;;;;;;18.37;47.89;101528.94;5007266;28;20191;-72
2022/05/31 09:38:40;;;;;;;2.43;2.10;;;;;;;18.29;47.59;101528.88;5009915;28;20219;-72
2022/05/31 09:41:13;;;;;;;2.43;1.90;;;;;;;18.19;48.56;101524.56;5008499;28;20637;-72
2022/05/31 09:43:47;;;;;;;2.00;1.80;;;;;;;18.15;49.06;101528.03;5009756;28;20195;-72
2022/05/31 09:46:33;;;;;;;2.63;1.80;;;;;;;18.62;48.81;101528.00;5014843;28;20191;-73
2022/05/31 09:48:59;;;;;;;2.03;1.60;;;;;;;18.97;47.95;101516.66;4986179;28;20329;-73
2022/05/31 09:51:30;;;;;;;1.83;1.10;;;;;;;19.95;45.52;101516.94;5009038;28;20257;-73
2022/05/31 09:57:10;;;;;;;2.93;1.10;;;;;;;20.25;43.52;101508.06;5008879;28;20218;-72
2022/05/31 10:00:17;;;;;;;2.83;1.17;;;;;;;20.44;41.59;101499.19;5018260;28;20198;-73
2022/05/31 10:03:03;;;;;;;2.73;1.20;;;;;;;19.87;41.15;101510.09;5030271;28;20829;-73
2022/05/31 10:05:28;;;;;;;1.20;1.00;;;;;;;20.24;43.32;101499.41;5030553;28;20198;-73
2022/05/31 10:07:54;;;;;;;2.07;1.87;;;;;;;20.60;47.01;101501.59;5030021;28;20239;-73
2022/05/31 10:10:33;;;;;;;2.77;1.70;;;;;;;20.56;47.23;101499.06;5012295;28;20226;-73
2022/05/31 10:13:09;;;;;;;2.07;1.67;;;;;;;20.49;45.50;101503.47;5030428;28;20190;-73
2022/05/31 10:15:49;;;;;;;2.60;1.80;;;;;;;19.70;44.24;101498.94;5030086;28;20635;-72
2022/05/31 10:18:30;;;;;;;3.00;1.80;;;;;;;20.02;44.73;101502.16;5029153;28;20251;-72
2022/05/31 10:21:02;;;;;;;1.70;1.50;;;;;;;19.00;45.33;101505.38;5022265;28;20595;-72
2022/05/31 10:23:38;;;;;;;3.13;1.80;;;;;;;20.20;43.51;101494.22;5010979;28;20186;-74
2022/05/31 10:26:33;;;;;;;2.57;1.80;;;;;;;19.69;44.51;101499.81;5010051;28;20214;-72
2022/05/31 10:29:17;;;;;;;1.73;1.33;;;;;;;20.08;45.15;101484.78;5010158;28;20215;-72
2022/05/31 10:31:55;;;;;;;3.83;1.60;;;;;;;19.97;47.04;101489.22;5008306;28;20187;-72
2022/05/31 10:34:34;;;;;;;2.53;1.70;;;;;;;20.03;45.42;101496.09;4992493;28;20198;-72
2022/05/31 10:37:02;;;;;;;2.70;1.83;;;;;;;19.72;46.27;101497.22;5008256;28;20226;-72
2022/05/31 10:39:36;;;;;;;2.03;1.63;;;;;;;20.42;45.91;101494.03;5010007;28;20245;-72
2022/05/31 10:42:07;;;;;;;2.53;1.30;;;;;;;20.71;45.60;101481.53;5010262;28;20544;-72
2022/05/31 10:44:40;;;;;;;2.10;1.47;;;;;;;20.91;45.70;101478.72;5007520;28;20206;-72
2022/05/31 10:47:14;;;;;;;1.70;1.37;;;;;;;20.58;45.73;101471.25;5021697;28;20217;-73
2022/05/31 10:49:42;;;;;;;2.40;1.67;;;;;;;20.34;45.12;101481.94;5029237;28;20182;-72
2022/05/31 10:52:25;;;;;;;1.30;1.20;;;;;;;20.49;43.87;101479.22;5029587;28;20202;-72
2022/05/31 10:55:13;;;;;;;1.47;1.37;;;;;;;20.85;43.60;101471.81;5028171;28;20731;-72
2022/05/31 10:57:57;;;;;;;1.40;1.30;;;;;;;20.32;42.67;101479.34;5028407;28;20221;-73
2022/05/31 11:00:33;;;;;;;2.50;1.57;;;;;;;20.82;41.96;101466.63;5016444;28;20286;-72
2022/05/31 11:03:33;;;;;;;1.70;1.37;;;;;;;21.60;43.62;101465.56;5010034;28;20178;-72
2022/05/31 11:06:13;;;;;;;1.40;1.17;;;;;;;22.02;41.98;101457.06;5009439;28;20198;-72
2022/05/31 11:11:57;;;;;;;2.67;1.50;;;;;;;20.77;42.03;101463.22;5009416;28;20178;-72
2022/05/31 11:14:44;;;;;;;1.73;1.30;;;;;;;20.56;44.12;101467.84;5009730;28;20179;-72
2022/05/31 11:17:24;;;;;;;2.10;1.20;;;;;;;21.01;43.56;101469.91;5009109;28;20314;-72
2022/05/31 11:20:09;;;;;;;3.10;1.00;;;;;;;20.93;44.01;101467.41;5009543;28;20187;-72
2022/05/31 11:22:37;;;;;;;1.60;1.33;;;;;;;21.04;42.05;101464.66;5006532;28;20253;-72
2022/05/31 11:25:33;;;;;;;2.67;1.40;;;;;;;20.65;43.85;101459.91;5009186;28;20195;-72
2022/05/31 11:28:21;;;;;;;1.53;1.07;;;;;;;21.46;44.09;101453.66;5009360;28;20211;-72
2022/05/31 11:31:08;;;;;;;1.37;1.00;;;;;;;21.52;41.68;101453.53;5009485;28;20522;-72
2022/05/31 11:34:08;;;;;;;1.43;0.77;;;;;;;21.11;41.38;101461.97;5009025;28;20652;-72
2022/05/31 11:36:53;;;;;;;1.40;0.93;;;;;;;21.02;40.87;101456.00;5009330;28;20198;-72
2022/05/31 11:39:28;;;;;;;1.00;0.80;;;;;;;21.53;42.06;101450.91;4988233;28;20265;-72
2022/05/31 11:42:04;;;;;;;2.10;0.87;;;;;;;21.06;41.23;101455.09;4989454;28;20763;-72
2022/05/31 11:44:47;;;;;;;1.30;1.00;;;;;;;21.28;42.07;101451.31;4988606;28;20183;-72
2022/05/31 11:47:40;;;;;;;2.27;1.10;;;;;;;21.47;41.70;101455.34;5014775;28;20214;-72
2022/05/31 11:50:32;;;;;;;1.27;0.70;;;;;;;21.74;41.79;101445.38;5016942;28;20268;-72
2022/05/31 11:53:17;;;;;;;1.00;0.90;;;;;;;21.64;39.26;101443.78;5009346;28;20179;-72
2022/05/31 11:56:00;;;;;;;0.80;0.80;;;;;;;21.83;38.76;101442.59;5013226;28;20542;-72
2022/05/31 11:58:49;;;;;;;1.53;0.80;;;;;;;21.51;38.45;101437.03;5012381;28;20752;-72
2022/05/31 12:01:42;;;;;;;1.60;0.80;;;;;;;22.09;39.27;101432.59;5029461;28;20209;-72
2022/05/31 12:04:17;;;;;;;1.57;0.83;;;;;;;21.76;40.34;101430.56;5032017;28;20171;-72
2022/05/31 12:06:56;;;;;;;1.47;0.80;;;;;;;21.66;38.64;101436.78;5032872;28;20261;-72
2022/05/31 12:09:29;;;;;;;2.10;0.80;;;;;;;22.07;39.52;101426.53;5030695;28;20527;-72
2022/05/31 12:12:01;;;;;;;3.53;0.90;;;;;;;21.71;39.01;101428.91;5031451;28;20198;-72
2022/05/31 12:14:28;;;;;;;1.13;0.90;;;;;;;21.44;38.68;101421.50;5030958;28;20182;-72
2022/05/31 12:16:55;;;;;;;0.93;0.83;;;;;;;20.52;38.88;101425.38;5032679;28;20694;-72
2022/05/31 12:19:29;;;;;;;0.97;0.70;;;;;;;20.70;40.05;101421.69;5032640;28;20300;-72
2022/05/31 12:22:15;;;;;;;2.33;0.83;;;;;;;20.54;40.32;101422.75;5015829;28;20268;-72
2022/05/31 12:24:48;;;;;;;1.80;0.80;;;;;;;20.17;40.69;101429.25;4991503;28;20563;-72
2022/05/31 12:27:19;;;;;;;1.00;0.80;;;;;;;20.62;38.90;101420.91;5001744;28;20582;-72
2022/05/31 12:30:16;;;;;;;2.40;0.97;;;;;;;20.71;39.84;101428.59;5011150;28;20188;-72